To NAV CANADA Home Page Login to a new session Search on AWWS site Feedback and Comments Disclaimer Vers la page française équivalente Tips FAQ What's new on the site To the Forecasts and Observations / NOTAM section To "File a Flight Plan" website Publications and other links Update of the User's profile FIC Telephone Numbers My Weather Data Folder Route Weather Data Regional Weather Data Local Weather Data To the Forecasts and Observations / NOTAM section
Request Generated 04/23/2014 at 22:04:25 UTC . Weather information available at that time is displayed.

METAR/TAF

NATASHQUAN/QC    (show WxCam)

METAR CYNA 232200Z AUTO 07015KT 9SM OVC010 01/00 A2974 RMK SLP070=
METAR CYNA 232100Z AUTO 08015G20KT 9SM OVC010 02/00 A2973 RMK MAX WND
07018KT AT 2047Z SLP069=
SPECI CYNA 232049Z AUTO 07016G21KT 9SM OVC010 02/00 A2973 RMK MAX WND
07018KT AT 2047Z SLP067=
SPECI CYNA 232014Z AUTO 08015G21KT 9SM -RA OVC010 02/01 A2974 RMK
SLP071=
METAR CYNA 232000Z AUTO 07012KT 9SM OVC010 02/00 A2974 RMK MAX WND
07018KT AT 1908Z PRESRR SLP073=

TAF CYNA 231938Z 2320/2408 07015G25KT 6SM -SHRA BR BKN010 OVC015
TEMPO 2320/2323 11/2SM -DZ BR OVC005
FM232300 07020KT 6SM -SNRA BR OVC007 TEMPO 2323/2408 2SM -SN
OVC012
RMK FCST BASED ON AUTO OBS. NXT FCST BY 240200Z=
Your time UTC time
Weather data provided by Environment Canada and NAV CANADA